createdAt,value
2022-09-12T00:00:08.173Z,12.60
2022-09-12T00:02:37.680Z,12.60
2022-09-12T00:05:07.329Z,12.70
2022-09-12T00:07:39.150Z,12.70
2022-09-12T00:10:07.764Z,12.70
2022-09-12T00:12:35.637Z,12.70
2022-09-12T00:15:03.993Z,12.70
2022-09-12T00:17:31.854Z,12.70
2022-09-12T00:19:59.890Z,12.70
2022-09-12T00:22:27.742Z,12.60
2022-09-12T00:24:56.945Z,12.60
2022-09-12T00:27:24.783Z,12.50
2022-09-12T00:29:52.846Z,12.40
2022-09-12T00:32:20.725Z,12.30
2022-09-12T00:34:48.889Z,12.20
2022-09-12T00:37:16.789Z,12.20
2022-09-12T00:39:44.685Z,12.20
2022-09-12T00:42:14.064Z,12.20
2022-09-12T00:44:48.819Z,12.20
2022-09-12T00:47:24.434Z,12.20
2022-09-12T00:50:00.896Z,12.10
2022-09-12T00:52:32.892Z,12.10
2022-09-12T00:55:06.650Z,12.10
2022-09-12T00:57:41.565Z,12.10
2022-09-12T01:00:15.236Z,12.10
2022-09-12T01:02:45.026Z,12.10
2022-09-12T01:05:14.544Z,12.10
2022-09-12T01:07:44.526Z,12.10
2022-09-12T01:10:12.838Z,12.00
2022-09-12T01:12:43.604Z,12.00
2022-09-12T01:15:12.057Z,11.90
2022-09-12T01:17:51.797Z,11.90
2022-09-12T01:20:41.849Z,11.90
2022-09-12T01:23:36.389Z,11.80
2022-09-12T01:26:33.350Z,11.80
2022-09-12T01:29:20.818Z,11.70
2022-09-12T01:31:56.638Z,11.60
2022-09-12T01:34:32.328Z,11.60
2022-09-12T01:37:08.145Z,11.70
2022-09-12T01:39:43.980Z,11.70
2022-09-12T01:42:18.950Z,11.70
2022-09-12T01:44:53.753Z,11.70
2022-09-12T01:47:28.648Z,11.70
2022-09-12T01:50:01.367Z,11.70
2022-09-12T01:52:34.573Z,11.70
2022-09-12T01:55:09.862Z,11.70
2022-09-12T01:57:42.873Z,11.70
2022-09-12T02:00:12.703Z,11.70
2022-09-12T02:02:50.494Z,11.70
2022-09-12T02:05:21.910Z,11.70
2022-09-12T02:07:52.888Z,11.70
2022-09-12T02:10:24.151Z,11.70
2022-09-12T02:12:57.603Z,11.60
2022-09-12T02:15:30.397Z,11.70
2022-09-12T02:18:02.444Z,11.60
2022-09-12T02:20:48.028Z,11.50
2022-09-12T02:23:21.493Z,11.50
2022-09-12T02:25:53.377Z,11.40
2022-09-12T02:28:26.192Z,11.40
2022-09-12T02:31:00.629Z,11.40
2022-09-12T02:33:33.877Z,11.50
2022-09-12T02:36:10.012Z,11.50
2022-09-12T02:38:44.276Z,11.50
2022-09-12T02:41:13.184Z,11.50
2022-09-12T02:43:41.377Z,11.50
2022-09-12T02:46:21.388Z,11.40
2022-09-12T02:48:50.521Z,11.40
2022-09-12T02:51:23.006Z,11.40
2022-09-12T02:53:51.881Z,11.30
2022-09-12T02:56:23.761Z,11.30
2022-09-12T02:58:51.977Z,11.30
2022-09-12T03:01:29.977Z,11.40
2022-09-12T03:04:28.032Z,11.30
2022-09-12T03:07:12.291Z,11.30
2022-09-12T03:09:47.054Z,11.30
2022-09-12T03:12:27.611Z,11.20
2022-09-12T03:15:10.787Z,11.20
2022-09-12T03:17:52.300Z,11.30
2022-09-12T03:20:31.696Z,11.30
2022-09-12T03:23:04.680Z,11.20
2022-09-12T03:25:36.973Z,11.20
2022-09-12T03:28:09.241Z,11.20
2022-09-12T03:30:40.522Z,11.10
2022-09-12T03:33:11.468Z,11.10
2022-09-12T03:35:40.680Z,11.10
2022-09-12T03:38:08.849Z,11.10
2022-09-12T03:40:36.987Z,11.10
2022-09-12T03:43:04.949Z,11.10
2022-09-12T03:45:32.829Z,11.10
2022-09-12T03:48:00.952Z,11.10
2022-09-12T03:50:29.000Z,11.10
2022-09-12T03:52:59.928Z,11.20
2022-09-12T03:55:27.721Z,11.20
2022-09-12T03:57:55.767Z,11.20
2022-09-12T04:00:23.940Z,11.10
2022-09-12T04:02:55.811Z,11.10
2022-09-12T04:05:23.706Z,11.10
2022-09-12T04:07:51.767Z,11.20
2022-09-12T04:10:20.870Z,11.20
2022-09-12T04:12:48.633Z,11.20
2022-09-12T04:15:16.532Z,11.20
2022-09-12T04:17:44.312Z,11.20
2022-09-12T04:20:12.121Z,11.20
2022-09-12T04:22:39.889Z,11.10
2022-09-12T04:25:09.408Z,11.10
2022-09-12T04:27:38.522Z,11.00
2022-09-12T04:30:07.464Z,11.00
2022-09-12T04:32:35.223Z,10.90
2022-09-12T04:35:03.120Z,10.90
2022-09-12T04:37:30.862Z,10.90
2022-09-12T04:39:59.135Z,10.80
2022-09-12T04:42:27.181Z,10.80
2022-09-12T04:44:56.245Z,10.80
2022-09-12T04:47:24.058Z,10.80
2022-09-12T04:49:52.321Z,10.70
2022-09-12T04:52:20.125Z,10.80
2022-09-12T04:54:48.172Z,10.80
2022-09-12T04:57:15.924Z,10.90
2022-09-12T04:59:43.757Z,10.90
2022-09-12T05:02:12.930Z,10.90
2022-09-12T05:04:40.681Z,10.90
2022-09-12T05:07:08.431Z,10.90
2022-09-12T05:09:36.172Z,10.90
2022-09-12T05:12:05.472Z,10.80
2022-09-12T05:14:34.594Z,10.80
2022-09-12T05:17:03.022Z,10.80
2022-09-12T05:19:32.822Z,10.80
2022-09-12T05:22:00.813Z,10.80
2022-09-12T05:24:28.831Z,10.80
2022-09-12T05:26:56.775Z,10.90
2022-09-12T05:29:25.527Z,10.90
2022-09-12T05:31:53.664Z,10.90
2022-09-12T05:34:21.599Z,10.90
2022-09-12T05:36:50.753Z,10.90
2022-09-12T05:39:18.672Z,11.00
2022-09-12T05:41:47.201Z,11.10
2022-09-12T05:44:15.538Z,11.10
2022-09-12T05:46:46.581Z,11.20
2022-09-12T05:49:15.289Z,11.20
2022-09-12T05:51:45.134Z,11.20
2022-09-12T05:54:17.242Z,11.30
2022-09-12T05:56:45.741Z,11.30
2022-09-12T05:59:15.416Z,11.40
2022-09-12T06:01:43.531Z,11.50
2022-09-12T06:04:12.027Z,11.60
2022-09-12T06:06:44.788Z,11.60
2022-09-12T06:09:15.318Z,11.80
2022-09-12T06:11:43.610Z,11.80
2022-09-12T06:14:12.833Z,11.90
2022-09-12T06:16:41.212Z,12.00
2022-09-12T06:19:15.377Z,12.10
2022-09-12T06:21:43.594Z,12.30
2022-09-12T06:24:11.500Z,12.40
2022-09-12T06:26:40.881Z,12.50
2022-09-12T06:29:08.649Z,12.60
2022-09-12T06:31:38.620Z,12.70
2022-09-12T06:34:08.340Z,12.80
2022-09-12T06:36:39.308Z,12.90
2022-09-12T06:39:11.080Z,12.90
2022-09-12T06:41:43.802Z,13.00
2022-09-12T06:44:14.531Z,13.10
2022-09-12T06:46:42.511Z,13.20
2022-09-12T06:49:10.787Z,13.30
2022-09-12T06:51:38.748Z,13.40
2022-09-12T06:54:06.798Z,13.50
2022-09-12T06:56:34.792Z,13.60
2022-09-12T06:59:04.090Z,13.70
2022-09-12T07:01:33.225Z,13.90
2022-09-12T07:04:03.739Z,13.90
2022-09-12T07:06:36.053Z,14.00
2022-09-12T07:09:06.321Z,14.10
2022-09-12T07:11:36.512Z,14.20
2022-09-12T07:14:07.042Z,14.20
2022-09-12T07:16:36.412Z,14.40
2022-09-12T07:19:06.611Z,14.50
2022-09-12T07:21:39.377Z,14.60
2022-09-12T07:24:08.612Z,14.70
2022-09-12T07:26:36.439Z,14.80
2022-09-12T07:29:32.766Z,14.90
2022-09-12T07:31:54.441Z,15.10
2022-09-12T07:34:22.201Z,15.20
2022-09-12T07:36:49.921Z,15.40
2022-09-12T07:39:17.693Z,15.50
2022-09-12T07:41:45.433Z,15.60
2022-09-12T07:44:14.489Z,15.80
2022-09-12T07:46:42.476Z,15.90
2022-09-12T07:49:10.232Z,16.00
2022-09-12T07:51:37.964Z,16.20
2022-09-12T07:54:09.145Z,16.30
2022-09-12T07:56:39.237Z,16.40
2022-09-12T07:59:07.401Z,16.60
2022-09-12T08:01:36.723Z,16.80
2022-09-12T08:04:05.074Z,17.00
2022-09-12T08:06:35.739Z,17.20
2022-09-12T08:09:06.162Z,17.30
2022-09-12T08:11:34.061Z,17.40
2022-09-12T08:14:02.987Z,17.60
2022-09-12T08:16:32.011Z,17.80
2022-09-12T08:19:02.458Z,17.90
2022-09-12T08:21:31.840Z,18.10
2022-09-12T08:24:01.494Z,18.30
2022-09-12T08:26:29.427Z,18.50
2022-09-12T08:28:57.461Z,18.60
2022-09-12T08:31:27.668Z,18.80
2022-09-12T08:33:57.351Z,19.00
2022-09-12T08:36:29.524Z,19.20
2022-09-12T08:39:00.224Z,19.20
2022-09-12T08:41:31.695Z,19.30
2022-09-12T08:44:27.176Z,19.50
2022-09-12T08:47:12.269Z,19.70
2022-09-12T08:49:48.801Z,20.00
2022-09-12T08:52:24.937Z,20.30
2022-09-12T08:54:54.469Z,20.50
2022-09-12T08:57:22.329Z,20.70
2022-09-12T08:59:50.481Z,20.80
2022-09-12T09:02:53.714Z,20.90
2022-09-12T09:05:28.637Z,21.10
2022-09-12T09:08:26.794Z,21.20
2022-09-12T09:11:05.315Z,21.20
2022-09-12T09:14:05.489Z,21.30
2022-09-12T09:16:36.089Z,21.50
2022-09-12T09:19:07.360Z,21.80
2022-09-12T09:21:41.693Z,21.90
2022-09-12T09:24:14.292Z,22.10
2022-09-12T09:26:47.017Z,22.30
2022-09-12T09:29:19.023Z,22.40
2022-09-12T09:31:49.806Z,22.50
2022-09-12T09:34:21.572Z,22.70
2022-09-12T09:36:56.246Z,22.70
2022-09-12T09:39:35.787Z,22.80
2022-09-12T09:42:16.882Z,22.90
2022-09-12T09:44:48.799Z,23.10
2022-09-12T09:47:18.673Z,23.10
2022-09-12T09:49:47.237Z,23.30
2022-09-12T09:52:25.473Z,23.30
2022-09-12T09:54:58.578Z,23.30
2022-09-12T09:57:44.553Z,23.30
2022-09-12T10:00:27.374Z,23.40
2022-09-12T10:03:30.633Z,23.50
2022-09-12T10:06:01.377Z,23.60
2022-09-12T10:08:31.007Z,23.50
2022-09-12T10:11:05.795Z,23.40
2022-09-12T10:13:40.464Z,23.40
2022-09-12T10:16:20.144Z,23.50
2022-09-12T10:18:47.997Z,23.70
2022-09-12T10:21:27.958Z,23.70
2022-09-12T10:24:03.517Z,23.70
2022-09-12T10:26:39.318Z,23.80
2022-09-12T10:29:16.003Z,23.90
2022-09-12T10:31:47.585Z,24.00
2022-09-12T10:34:27.750Z,24.10
2022-09-12T10:37:01.300Z,24.40
2022-09-12T10:39:29.464Z,24.60
2022-09-12T10:41:58.531Z,24.70
2022-09-12T10:44:28.808Z,24.60
2022-09-12T10:46:56.844Z,24.60
2022-09-12T10:49:30.886Z,24.60
2022-09-12T10:52:17.560Z,24.60
2022-09-12T10:54:46.029Z,24.60
2022-09-12T10:57:39.828Z,24.40
2022-09-12T11:00:15.801Z,24.40
2022-09-12T11:02:58.347Z,24.40
2022-09-12T11:05:39.504Z,24.40
2022-09-12T11:08:22.412Z,24.60
2022-09-12T11:10:58.564Z,24.60
2022-09-12T11:13:40.962Z,24.70
2022-09-12T11:16:22.806Z,24.70
2022-09-12T11:19:18.839Z,24.70
2022-09-12T11:22:00.642Z,24.80
2022-09-12T11:24:49.751Z,24.80
2022-09-12T11:27:34.922Z,24.60
2022-09-12T11:30:09.825Z,24.50
2022-09-12T11:33:05.554Z,24.60
2022-09-12T11:35:34.628Z,24.80
2022-09-12T11:38:19.781Z,24.90
2022-09-12T11:40:52.121Z,24.80
2022-09-12T11:43:36.661Z,24.70
2022-09-12T11:46:13.322Z,24.70
2022-09-12T11:48:46.447Z,24.60
2022-09-12T11:51:20.347Z,24.40
2022-09-12T11:53:59.286Z,24.50
2022-09-12T11:56:27.280Z,24.70
2022-09-12T11:58:59.994Z,24.70
2022-09-12T12:01:36.453Z,24.50
2022-09-12T12:04:12.689Z,24.50
2022-09-12T12:06:51.997Z,24.50
2022-09-12T12:09:19.898Z,24.50
2022-09-12T12:11:52.460Z,24.50
2022-09-12T12:14:24.543Z,24.50
2022-09-12T12:16:54.001Z,24.60
2022-09-12T12:19:35.214Z,24.70
2022-09-12T12:22:08.805Z,24.70
2022-09-12T12:24:54.176Z,24.50
2022-09-12T12:27:45.769Z,24.40
2022-09-12T12:31:04.307Z,24.30
2022-09-12T12:34:02.032Z,24.30
2022-09-12T12:36:40.146Z,24.30
2022-09-12T12:39:45.206Z,24.40
2022-09-12T12:43:01.397Z,24.40
2022-09-12T12:46:03.986Z,24.40
2022-09-12T12:48:44.313Z,24.20
2022-09-12T12:51:32.817Z,24.00
2022-09-12T12:54:01.928Z,23.90
2022-09-12T12:56:36.506Z,23.90
2022-09-12T12:59:12.666Z,23.70
2022-09-12T13:01:50.443Z,23.60
2022-09-12T13:04:23.502Z,23.50
2022-09-12T13:07:05.779Z,23.40
2022-09-12T13:09:44.204Z,23.30
2022-09-12T13:12:20.701Z,23.30
2022-09-12T13:14:54.416Z,23.20
2022-09-12T13:17:36.833Z,23.20
2022-09-12T13:20:28.447Z,23.20
2022-09-12T13:22:59.227Z,23.30
2022-09-12T13:25:31.880Z,23.40
2022-09-12T13:28:18.356Z,23.40
2022-09-12T13:30:48.826Z,23.40
2022-09-12T13:33:25.618Z,23.40
2022-09-12T13:36:24.752Z,23.30
2022-09-12T13:39:15.579Z,23.30
2022-09-12T13:42:15.005Z,23.20
2022-09-12T13:44:46.500Z,23.20
2022-09-12T13:47:17.237Z,23.20
2022-09-12T13:49:46.750Z,23.00
2022-09-12T13:52:19.938Z,23.00
2022-09-12T13:54:53.030Z,22.90
2022-09-12T13:57:34.288Z,22.80
2022-09-12T14:00:06.937Z,22.90
2022-09-12T14:02:37.528Z,22.90
2022-09-12T14:05:19.976Z,22.80
2022-09-12T14:07:56.067Z,22.80
2022-09-12T14:10:33.461Z,22.80
2022-09-12T14:13:05.340Z,22.70
2022-09-12T14:15:36.654Z,22.60
2022-09-12T14:18:08.225Z,22.50
2022-09-12T14:20:39.340Z,22.50
2022-09-12T14:23:14.780Z,22.50
2022-09-12T14:25:47.849Z,22.50
2022-09-12T14:28:23.383Z,22.50
2022-09-12T14:31:02.910Z,22.40
2022-09-12T14:33:34.446Z,22.40
2022-09-12T14:36:21.543Z,22.40
2022-09-12T14:38:51.836Z,22.40
2022-09-12T14:41:27.130Z,22.40
2022-09-12T14:43:58.263Z,22.40
2022-09-12T14:46:31.470Z,22.40
2022-09-12T14:49:03.273Z,22.40
2022-09-12T14:51:34.764Z,22.40
2022-09-12T14:54:02.816Z,22.40
2022-09-12T14:56:42.376Z,22.40
2022-09-12T14:59:29.748Z,22.40
2022-09-12T15:02:27.921Z,22.30
2022-09-12T15:05:16.119Z,22.30
2022-09-12T15:07:46.392Z,22.20
2022-09-12T15:10:22.944Z,22.20
2022-09-12T15:13:05.006Z,22.10
2022-09-12T15:15:33.457Z,22.00
2022-09-12T15:18:04.576Z,22.00
2022-09-12T15:20:34.756Z,22.00
2022-09-12T15:23:02.600Z,22.00
2022-09-12T15:25:30.348Z,22.00
2022-09-12T15:27:59.472Z,21.90
2022-09-12T15:30:27.476Z,21.90
2022-09-12T15:32:55.242Z,21.80
2022-09-12T15:35:24.994Z,21.90
2022-09-12T15:37:53.040Z,21.90
2022-09-12T15:40:20.820Z,21.90
2022-09-12T15:42:48.648Z,21.90
2022-09-12T15:45:20.812Z,21.80
2022-09-12T15:47:48.555Z,21.90
2022-09-12T15:50:16.633Z,21.90
2022-09-12T15:52:44.512Z,21.80
2022-09-12T15:55:17.713Z,21.80
2022-09-12T15:57:45.620Z,21.80
2022-09-12T16:00:14.311Z,21.80
2022-09-12T16:02:43.450Z,21.70
2022-09-12T16:05:15.939Z,21.70
2022-09-12T16:07:43.947Z,21.70
2022-09-12T16:10:17.077Z,21.60
2022-09-12T16:12:45.439Z,21.50
2022-09-12T16:15:15.463Z,21.50
2022-09-12T16:17:44.613Z,21.50
2022-09-12T16:20:13.119Z,21.40
2022-09-12T16:22:42.041Z,21.30
2022-09-12T16:25:10.186Z,21.20
2022-09-12T16:27:38.669Z,21.20
2022-09-12T16:30:08.460Z,21.10
2022-09-12T16:32:36.896Z,21.00
2022-09-12T16:35:07.310Z,21.00
2022-09-12T16:37:35.391Z,20.80
2022-09-12T16:40:03.670Z,20.80
2022-09-12T16:42:31.481Z,20.70
2022-09-12T16:44:59.213Z,20.70
2022-09-12T16:47:27.058Z,20.60
2022-09-12T16:49:54.803Z,20.50
2022-09-12T16:52:23.882Z,20.50
2022-09-12T16:54:51.660Z,20.40
2022-09-12T16:57:19.455Z,20.30
2022-09-12T16:59:47.242Z,20.30
2022-09-12T17:02:15.825Z,20.20
2022-09-12T17:04:44.060Z,20.10
2022-09-12T17:07:11.849Z,20.00
2022-09-12T17:09:44.147Z,19.90
2022-09-12T17:12:13.950Z,19.80
2022-09-12T17:14:41.776Z,19.70
2022-09-12T17:17:09.540Z,19.70
2022-09-12T17:19:37.300Z,19.60
2022-09-12T17:22:05.113Z,19.40
2022-09-12T17:24:32.938Z,19.40
2022-09-12T17:27:02.112Z,19.30
2022-09-12T17:29:29.923Z,19.20
2022-09-12T17:31:57.656Z,19.20
2022-09-12T17:34:25.385Z,19.10
2022-09-12T17:36:53.121Z,19.00
2022-09-12T17:39:20.989Z,18.90
2022-09-12T17:41:51.657Z,18.80
2022-09-12T17:44:20.801Z,18.70
2022-09-12T17:46:48.861Z,18.60
2022-09-12T17:49:18.499Z,18.50
2022-09-12T17:51:46.276Z,18.40
2022-09-12T17:54:16.541Z,18.30
2022-09-12T17:56:46.385Z,18.20
2022-09-12T17:59:16.721Z,18.10
2022-09-12T18:02:04.114Z,18.00
2022-09-12T18:04:32.350Z,18.00
2022-09-12T18:07:00.306Z,17.90
2022-09-12T18:09:28.481Z,17.80
2022-09-12T18:11:56.425Z,17.80
2022-09-12T18:14:26.086Z,17.70
2022-09-12T18:16:56.945Z,17.70
2022-09-12T18:19:26.317Z,17.70
2022-09-12T18:21:54.282Z,17.50
2022-09-12T18:24:22.739Z,17.40
2022-09-12T18:26:50.529Z,17.40
2022-09-12T18:29:19.860Z,17.30
2022-09-12T18:31:47.803Z,17.30
2022-09-12T18:34:17.916Z,17.30
2022-09-12T18:36:50.085Z,17.20
2022-09-12T18:39:18.528Z,17.20
2022-09-12T18:41:46.300Z,17.20
2022-09-12T18:44:14.439Z,17.10
2022-09-12T18:46:42.390Z,17.10
2022-09-12T18:49:10.569Z,17.00
2022-09-12T18:51:41.609Z,17.00
2022-09-12T18:54:13.737Z,16.90
2022-09-12T18:56:43.720Z,16.90
2022-09-12T18:59:14.206Z,16.80
2022-09-12T19:01:42.670Z,16.80
2022-09-12T19:04:12.578Z,16.80
2022-09-12T19:06:43.701Z,16.70
2022-09-12T19:09:13.849Z,16.60
2022-09-12T19:11:48.550Z,16.60
2022-09-12T19:14:16.976Z,16.50
2022-09-12T19:16:44.697Z,16.40
2022-09-12T19:19:12.479Z,16.30
2022-09-12T19:21:41.995Z,16.30
2022-09-12T19:24:10.988Z,16.20
2022-09-12T19:26:39.430Z,16.20
2022-09-12T19:29:08.093Z,16.10
2022-09-12T19:31:36.045Z,16.00
2022-09-12T19:34:05.683Z,16.00
2022-09-12T19:36:44.879Z,16.00
2022-09-12T19:39:16.414Z,15.90
2022-09-12T19:41:44.425Z,15.90
2022-09-12T19:44:12.545Z,15.90
2022-09-12T19:46:40.434Z,15.90
2022-09-12T19:49:08.833Z,15.80
2022-09-12T19:51:36.581Z,15.80
2022-09-12T19:54:04.425Z,15.80
2022-09-12T19:56:33.549Z,15.80
2022-09-12T19:59:01.286Z,15.80
2022-09-12T20:01:29.294Z,15.80
2022-09-12T20:03:57.883Z,15.70
2022-09-12T20:06:26.596Z,15.70
2022-09-12T20:08:54.641Z,15.60
2022-09-12T20:11:24.117Z,15.60
2022-09-12T20:13:54.317Z,15.60
2022-09-12T20:16:24.506Z,15.50
2022-09-12T20:18:55.880Z,15.30
2022-09-12T20:21:30.771Z,15.40
2022-09-12T20:24:02.137Z,15.30
2022-09-12T20:26:30.248Z,15.30
2022-09-12T20:28:59.608Z,15.20
2022-09-12T20:31:27.495Z,15.20
2022-09-12T20:33:55.673Z,15.20
2022-09-12T20:36:23.729Z,15.20
2022-09-12T20:38:53.381Z,15.10
2022-09-12T20:41:22.110Z,15.20
2022-09-12T20:43:51.005Z,15.10
2022-09-12T20:46:22.398Z,15.10
2022-09-12T20:48:50.567Z,15.10
2022-09-12T20:51:18.524Z,15.20
2022-09-12T20:53:46.312Z,15.20
2022-09-12T20:56:14.902Z,15.10
2022-09-12T20:58:44.409Z,15.10
2022-09-12T21:01:13.409Z,15.10
2022-09-12T21:03:43.657Z,15.00
2022-09-12T21:06:12.391Z,15.00
2022-09-12T21:08:40.265Z,15.00
2022-09-12T21:11:08.192Z,14.90
2022-09-12T21:13:36.406Z,14.80
2022-09-12T21:16:05.989Z,14.80
2022-09-12T21:18:34.812Z,14.70
2022-09-12T21:21:04.817Z,14.60
2022-09-12T21:23:33.420Z,14.60
2022-09-12T21:26:02.032Z,14.50
2022-09-12T21:28:29.930Z,14.50
2022-09-12T21:30:58.096Z,14.50
2022-09-12T21:33:25.953Z,14.50
2022-09-12T21:35:53.712Z,14.50
2022-09-12T21:38:22.778Z,14.40
2022-09-12T21:40:50.517Z,14.40
2022-09-12T21:43:18.261Z,14.50
2022-09-12T21:45:45.997Z,14.50
2022-09-12T21:48:13.741Z,14.60
2022-09-12T21:50:41.504Z,14.50
2022-09-12T21:53:09.215Z,14.60
2022-09-12T21:55:38.292Z,14.60
2022-09-12T21:58:06.020Z,14.60
2022-09-12T22:00:34.013Z,14.70
2022-09-12T22:03:04.538Z,14.60
2022-09-12T22:05:33.445Z,14.60
2022-09-12T22:08:01.843Z,14.60
2022-09-12T22:10:29.601Z,14.60
2022-09-12T22:12:58.653Z,14.50
2022-09-12T22:15:41.809Z,14.50
2022-09-12T22:18:09.587Z,14.40
2022-09-12T22:20:37.490Z,14.40
2022-09-12T22:23:24.976Z,14.40
2022-09-12T22:25:55.179Z,14.40
2022-09-12T22:28:25.015Z,14.40
2022-09-12T22:30:54.800Z,14.40
2022-09-12T22:33:22.700Z,14.40
2022-09-12T22:35:50.429Z,14.40
2022-09-12T22:38:18.150Z,14.40
2022-09-12T22:40:46.055Z,14.30
2022-09-12T22:43:13.993Z,14.40
2022-09-12T22:45:43.353Z,14.40
2022-09-12T22:48:11.169Z,14.40
2022-09-12T22:50:38.936Z,14.40
2022-09-12T22:53:06.687Z,14.40
2022-09-12T22:55:34.756Z,14.40
2022-09-12T22:58:03.501Z,14.40
2022-09-12T23:00:31.297Z,14.50
2022-09-12T23:03:01.463Z,14.50
2022-09-12T23:05:29.727Z,14.60
2022-09-12T23:07:57.448Z,14.50
2022-09-12T23:10:25.915Z,14.50
2022-09-12T23:12:53.731Z,14.40
2022-09-12T23:15:21.669Z,14.30
2022-09-12T23:17:49.475Z,14.30
2022-09-12T23:20:18.637Z,14.30
2022-09-12T23:22:46.406Z,14.10
2022-09-12T23:25:14.251Z,14.00
2022-09-12T23:27:43.136Z,13.90
2022-09-12T23:30:12.053Z,13.90
2022-09-12T23:32:39.792Z,13.80
2022-09-12T23:35:07.882Z,13.80
2022-09-12T23:37:36.952Z,13.80
2022-09-12T23:40:05.553Z,13.80
2022-09-12T23:42:33.349Z,13.80
2022-09-12T23:45:01.068Z,13.80
2022-09-12T23:47:28.921Z,13.90
2022-09-12T23:49:56.655Z,13.90
2022-09-12T23:52:24.432Z,13.80
2022-09-12T23:54:53.489Z,13.70
2022-09-12T23:57:21.245Z,13.70
2022-09-12T23:59:48.974Z,13.60
